Time;durP1;ratioP1;P1;durP2;ratioP2;P2;SDS_P1;SDS_P2;PMS_P1;PMS_P2;Temp;Humidity;BMP_temperature;BMP_pressure;BME280_temperature;BME280_humidity;BME280_pressure;Samples;Min_cycle;Max_cycle;Signal;HPM_P1;HPM_P2
2021/04/22 00:00:59;;;;;;;10.48;2.65;;;;;;;5.49;nan;101502.19;4993027;28;20053;-79
2021/04/22 00:03:24;;;;;;;12.27;2.78;;;;;;;5.53;nan;101502.59;5004047;28;20030;-78
2021/04/22 00:05:50;;;;;;;12.85;2.30;;;;;;;5.48;nan;101503.19;4985108;28;20384;-79
2021/04/22 00:08:15;;;;;;;8.85;2.35;;;;;;;5.38;nan;101510.69;5005685;28;20056;-79
2021/04/22 00:10:46;;;;;;;8.73;2.30;;;;;;;5.29;nan;101514.53;4991230;28;20033;-80
2021/04/22 00:13:18;;;;;;;13.85;3.17;;;;;;;5.14;nan;101518.09;5003883;28;20044;-79
2021/04/22 00:15:44;;;;;;;14.30;2.80;;;;;;;5.19;nan;101508.72;5005410;28;20029;-79
2021/04/22 00:18:11;;;;;;;11.82;2.33;;;;;;;5.00;nan;101516.34;4988465;28;20030;-78
2021/04/22 00:20:37;;;;;;;11.63;2.58;;;;;;;5.07;nan;101514.59;4987052;28;20028;-79
2021/04/22 00:23:07;;;;;;;6.72;1.90;;;;;;;5.09;nan;101519.72;5006044;28;20037;-78
2021/04/22 00:25:33;;;;;;;5.55;1.80;;;;;;;5.22;nan;101521.66;5006670;28;20087;-78
2021/04/22 00:28:03;;;;;;;13.68;3.03;;;;;;;5.16;nan;101516.06;4982245;28;20030;-79
2021/04/22 00:30:29;;;;;;;11.07;2.28;;;;;;;5.08;nan;101512.75;4985790;28;20021;-78
2021/04/22 00:32:55;;;;;;;13.77;3.35;;;;;;;5.10;nan;101522.16;5003087;28;20038;-79
2021/04/22 00:35:21;;;;;;;8.68;3.05;;;;;;;5.23;nan;101523.28;4986122;28;20025;-77
2021/04/22 00:37:47;;;;;;;10.77;2.55;;;;;;;5.18;nan;101525.69;4988665;28;20529;-78
2021/04/22 00:40:22;;;;;;;10.80;2.70;;;;;;;5.05;nan;101511.31;4999611;28;20125;-78
2021/04/22 00:42:48;;;;;;;12.77;2.50;;;;;;;5.05;nan;101519.28;5000261;28;20096;-79
2021/04/22 00:45:15;;;;;;;14.82;2.88;;;;;;;5.12;nan;101512.16;4990324;28;20038;-77
2021/04/22 00:47:41;;;;;;;13.18;3.30;;;;;;;5.01;nan;101512.69;5002326;28;20025;-77
2021/04/22 00:50:10;;;;;;;11.95;3.85;;;;;;;5.04;nan;101512.31;5006274;28;20022;-78
2021/04/22 00:52:37;;;;;;;11.38;2.22;;;;;;;5.13;nan;101513.81;5002646;28;20545;-78
2021/04/22 00:55:03;;;;;;;14.88;3.63;;;;;;;5.34;nan;101501.47;4988592;28;20381;-77
2021/04/22 00:57:28;;;;;;;8.35;3.00;;;;;;;5.05;nan;101506.00;5001028;28;20045;-78
2021/04/22 00:59:54;;;;;;;7.63;2.88;;;;;;;5.09;nan;101501.13;5006374;28;20060;-77
2021/04/22 01:02:20;;;;;;;10.45;2.50;;;;;;;5.00;nan;101507.56;4986252;28;20024;-77
2021/04/22 01:04:46;;;;;;;13.10;4.00;;;;;;;5.05;nan;101494.56;5001970;28;20123;-78
2021/04/22 01:07:14;;;;;;;11.07;3.13;;;;;;;5.12;nan;101504.19;4983301;28;20037;-77
2021/04/22 01:09:39;;;;;;;12.88;3.40;;;;;;;5.05;nan;101508.66;5001906;28;20034;-78
2021/04/22 01:12:06;;;;;;;12.05;2.70;;;;;;;5.06;nan;101502.31;4987471;28;20132;-77
2021/04/22 01:14:32;;;;;;;10.18;2.63;;;;;;;5.12;nan;101511.34;5002967;28;20029;-79
2021/04/22 01:16:57;;;;;;;10.32;2.70;;;;;;;5.07;nan;101513.78;5001579;28;20404;-78
2021/04/22 01:19:24;;;;;;;12.65;3.17;;;;;;;4.93;nan;101504.88;4985939;28;20077;-77
2021/04/22 01:21:51;;;;;;;10.88;3.05;;;;;;;4.91;nan;101501.59;4997386;28;20391;-78
2021/04/22 01:24:17;;;;;;;7.95;2.90;;;;;;;4.92;nan;101511.19;5005221;28;20026;-78
2021/04/22 01:26:43;;;;;;;17.33;3.30;;;;;;;4.91;nan;101501.59;5005343;28;20480;-77
2021/04/22 01:29:08;;;;;;;9.88;3.03;;;;;;;4.93;nan;101499.56;4985167;28;20496;-77
2021/04/22 01:31:34;;;;;;;11.88;3.45;;;;;;;4.96;nan;101498.34;4987075;28;20037;-77
2021/04/22 01:34:04;;;;;;;10.55;3.60;;;;;;;5.02;nan;101502.88;4984977;28;20026;-77
2021/04/22 01:36:41;;;;;;;9.13;3.63;;;;;;;4.98;nan;101513.06;4984126;28;20032;-78
2021/04/22 01:39:09;;;;;;;10.88;3.33;;;;;;;5.01;nan;101504.72;4987632;28;20076;-78
2021/04/22 01:41:35;;;;;;;12.57;2.90;;;;;;;4.94;nan;101514.47;4984618;28;20038;-79
2021/04/22 01:44:02;;;;;;;11.20;2.95;;;;;;;4.94;nan;101511.81;5003200;28;20049;-77
2021/04/22 01:46:27;;;;;;;13.82;3.00;;;;;;;4.91;nan;101516.69;5002693;28;20492;-78
2021/04/22 01:48:53;;;;;;;15.85;3.45;;;;;;;4.97;nan;101514.09;5005038;28;20108;-78
2021/04/22 01:51:20;;;;;;;13.13;3.50;;;;;;;4.92;nan;101524.47;5001638;28;20025;-78
2021/04/22 01:53:46;;;;;;;11.50;3.22;;;;;;;4.96;nan;101506.31;4981195;28;20033;-78
2021/04/22 01:56:11;;;;;;;13.05;4.15;;;;;;;4.92;nan;101508.53;4988577;28;20026;-78
2021/04/22 01:58:37;;;;;;;7.43;2.70;;;;;;;4.97;nan;101505.31;4999120;28;20033;-78
2021/04/22 02:01:03;;;;;;;13.23;3.30;;;;;;;4.92;nan;101511.19;5002906;28;20114;-78
2021/04/22 02:03:31;;;;;;;14.27;3.97;;;;;;;4.92;nan;101507.72;4983497;28;20157;-77
2021/04/22 02:05:56;;;;;;;12.52;3.88;;;;;;;4.92;nan;101507.72;4999303;28;20114;-79
2021/04/22 02:08:22;;;;;;;10.73;3.05;;;;;;;5.01;nan;101509.22;4983708;28;20121;-77
2021/04/22 02:10:48;;;;;;;12.35;3.05;;;;;;;5.02;nan;101510.84;5002277;28;20105;-77
2021/04/22 02:13:16;;;;;;;13.55;4.22;;;;;;;4.90;nan;101520.38;4999078;28;20088;-79
2021/04/22 02:15:43;;;;;;;13.93;3.65;;;;;;;4.95;nan;101516.13;4987091;28;20041;-77
2021/04/22 02:18:09;;;;;;;10.52;2.55;;;;;;;4.93;nan;101512.03;4986348;28;20029;-77
2021/04/22 02:20:35;;;;;;;13.27;3.55;;;;;;;4.89;nan;101502.81;4984262;28;20023;-76
2021/04/22 02:23:00;;;;;;;8.93;3.45;;;;;;;4.89;nan;101518.72;4991992;28;20029;-79
2021/04/22 02:25:28;;;;;;;15.25;3.50;;;;;;;4.91;nan;101511.41;5007425;28;20030;-77
2021/04/22 02:27:55;;;;;;;12.50;4.18;;;;;;;4.91;nan;101517.53;5002939;28;20022;-77
2021/04/22 02:30:31;;;;;;;8.52;3.03;;;;;;;4.81;nan;101514.38;4990134;28;20018;-78
2021/04/22 02:32:59;;;;;;;9.90;2.97;;;;;;;4.88;nan;101512.59;4989926;28;20022;-77
2021/04/22 02:35:28;;;;;;;11.98;3.60;;;;;;;4.82;nan;101534.59;5008310;28;20282;-78
2021/04/22 02:37:55;;;;;;;12.38;3.10;;;;;;;4.83;nan;101526.44;5006985;28;20024;-77
2021/04/22 02:40:23;;;;;;;11.98;3.08;;;;;;;4.71;nan;101533.28;5009957;28;20029;-77
2021/04/22 02:42:50;;;;;;;17.50;3.85;;;;;;;4.77;nan;101527.19;4990226;28;20041;-78
2021/04/22 02:45:20;;;;;;;17.35;3.60;;;;;;;4.76;nan;101527.41;4988612;28;20041;-77
2021/04/22 02:47:47;;;;;;;12.38;3.33;;;;;;;4.82;nan;101518.66;4988601;28;20201;-77
2021/04/22 02:50:16;;;;;;;14.20;3.47;;;;;;;4.83;nan;101521.13;4990793;28;20372;-77
2021/04/22 02:52:41;;;;;;;14.60;3.47;;;;;;;4.76;nan;101519.44;5006998;28;20054;-77
2021/04/22 02:55:07;;;;;;;15.00;4.10;;;;;;;4.77;nan;101521.06;5008915;28;20135;-78
2021/04/22 02:57:34;;;;;;;15.48;3.88;;;;;;;4.76;nan;101520.25;4986783;28;20401;-77
2021/04/22 03:00:00;;;;;;;13.60;2.83;;;;;;;4.81;nan;101517.84;4985711;28;20092;-77
2021/04/22 03:02:25;;;;;;;20.50;3.60;;;;;;;4.76;nan;101519.44;5006574;28;20045;-78
2021/04/22 03:04:51;;;;;;;11.10;3.60;;;;;;;4.83;nan;101520.28;4991552;28;20036;-77
2021/04/22 03:07:17;;;;;;;11.73;2.60;;;;;;;4.77;nan;101518.41;4988211;28;20451;-77
2021/04/22 03:09:42;;;;;;;11.95;3.75;;;;;;;4.73;nan;101517.16;4985248;28;20092;-77
2021/04/22 03:12:08;;;;;;;9.02;2.67;;;;;;;4.70;nan;101520.19;5000657;28;20034;-77
2021/04/22 03:14:35;;;;;;;12.23;3.55;;;;;;;4.61;nan;101518.69;4979936;28;20425;-77
2021/04/22 03:17:00;;;;;;;9.02;2.83;;;;;;;4.82;nan;101526.63;5009119;28;20141;-77
2021/04/22 03:19:26;;;;;;;13.38;3.08;;;;;;;4.68;nan;101522.22;5000776;28;20183;-77
2021/04/22 03:21:51;;;;;;;15.32;3.42;;;;;;;4.61;nan;101521.31;4992280;28;20103;-76
2021/04/22 03:24:17;;;;;;;16.05;3.13;;;;;;;4.62;nan;101541.56;4992542;28;20030;-79
2021/04/22 03:26:43;;;;;;;16.90;3.47;;;;;;;4.62;nan;101520.31;5007885;28;20076;-77
2021/04/22 03:29:09;;;;;;;8.30;2.92;;;;;;;4.57;nan;101525.38;4991100;28;20057;-77
2021/04/22 03:31:35;;;;;;;13.65;2.97;;;;;;;4.58;nan;101522.53;4993989;28;20507;-77
2021/04/22 03:34:00;;;;;;;9.30;3.35;;;;;;;4.47;nan;101528.34;4988349;28;20037;-78
2021/04/22 03:36:26;;;;;;;12.85;3.30;;;;;;;4.52;nan;101531.25;5004938;28;20022;-77
2021/04/22 03:38:54;;;;;;;18.13;3.70;;;;;;;4.43;nan;101535.84;5003485;28;20056;-78
2021/04/22 03:41:19;;;;;;;13.02;3.55;;;;;;;4.39;nan;101523.16;4986970;28;20479;-77
2021/04/22 03:43:45;;;;;;;14.30;3.08;;;;;;;4.38;nan;101525.00;4989021;28;20030;-79
2021/04/22 03:46:10;;;;;;;12.43;3.10;;;;;;;4.30;nan;101525.09;5002756;28;20480;-78
2021/04/22 03:48:36;;;;;;;11.90;3.20;;;;;;;4.30;nan;101527.75;5002629;28;20112;-77
2021/04/22 03:51:01;;;;;;;12.65;3.08;;;;;;;4.30;nan;101530.41;4987854;28;20030;-77
2021/04/22 03:53:27;;;;;;;9.48;2.80;;;;;;;4.23;nan;101534.81;5004355;28;20030;-77
2021/04/22 03:55:52;;;;;;;10.38;3.15;;;;;;;4.23;nan;101530.34;4988130;28;20034;-77
2021/04/22 03:58:18;;;;;;;12.23;3.55;;;;;;;4.06;nan;101528.91;5003174;28;20026;-77
2021/04/22 04:00:44;;;;;;;11.02;3.45;;;;;;;4.16;nan;101539.25;5004505;28;20988;-77
2021/04/22 04:03:09;;;;;;;14.50;3.60;;;;;;;4.05;nan;101532.56;5000965;28;20036;-77
2021/04/22 04:05:35;;;;;;;10.77;3.03;;;;;;;3.94;nan;101536.50;5006140;28;20032;-77
2021/04/22 04:08:01;;;;;;;8.38;3.55;;;;;;;3.96;nan;101540.84;5001380;28;20036;-77
2021/04/22 04:10:26;;;;;;;12.05;2.72;;;;;;;3.93;nan;101542.81;4990955;28;20028;-78
2021/04/22 04:12:52;;;;;;;12.23;3.00;;;;;;;3.94;nan;101543.66;4988747;28;20036;-77
2021/04/22 04:15:17;;;;;;;19.48;3.90;;;;;;;3.88;nan;101536.44;5002517;28;20026;-77
2021/04/22 04:17:43;;;;;;;14.80;4.30;;;;;;;3.94;nan;101547.13;5006024;28;20037;-77
2021/04/22 04:20:11;;;;;;;8.52;3.45;;;;;;;3.93;nan;101544.66;4983955;28;20080;-77
2021/04/22 04:22:37;;;;;;;13.50;3.70;;;;;;;3.84;nan;101546.59;4988359;28;20112;-77
2021/04/22 04:25:05;;;;;;;16.10;4.05;;;;;;;3.87;nan;101551.53;5003683;28;20392;-77
2021/04/22 04:27:31;;;;;;;18.40;4.28;;;;;;;3.86;nan;101547.22;4989985;28;20529;-77
2021/04/22 04:29:56;;;;;;;14.98;3.58;;;;;;;3.79;nan;101537.56;4984485;28;20029;-77
2021/04/22 04:32:22;;;;;;;11.90;3.22;;;;;;;3.86;nan;101555.19;4988908;28;20108;-77
2021/04/22 04:34:47;;;;;;;14.02;3.33;;;;;;;3.79;nan;101548.97;4983630;28;20695;-76
2021/04/22 04:37:13;;;;;;;13.13;4.38;;;;;;;3.76;nan;101538.72;5004427;28;20033;-77
2021/04/22 04:39:38;;;;;;;15.38;3.00;;;;;;;3.83;nan;101550.25;4989509;28;20037;-77
2021/04/22 04:42:05;;;;;;;11.40;3.55;;;;;;;3.74;nan;101554.00;4988639;28;20496;-77
2021/04/22 04:44:31;;;;;;;14.77;3.63;;;;;;;3.73;nan;101555.00;5000154;28;20057;-77
2021/04/22 04:46:56;;;;;;;16.75;3.65;;;;;;;3.92;nan;101559.75;5000660;28;20061;-77
2021/04/22 04:49:22;;;;;;;15.77;3.65;;;;;;;3.98;nan;101567.97;4996962;28;20050;-77
2021/04/22 04:51:47;;;;;;;13.38;3.95;;;;;;;4.03;nan;101547.03;5005093;28;20069;-77
2021/04/22 04:54:13;;;;;;;13.00;4.28;;;;;;;4.12;nan;101557.34;4992691;28;20041;-77
2021/04/22 04:56:38;;;;;;;12.77;3.60;;;;;;;4.21;nan;101561.53;5005861;28;20030;-77
2021/04/22 04:59:04;;;;;;;11.00;2.88;;;;;;;4.30;nan;101562.22;4984150;28;20882;-77
2021/04/22 05:01:30;;;;;;;19.95;4.00;;;;;;;4.17;nan;101570.06;4989354;28;20040;-77
2021/04/22 05:03:55;;;;;;;13.18;4.00;;;;;;;4.15;nan;101564.13;5002217;28;20061;-77
2021/04/22 05:06:21;;;;;;;14.02;3.22;;;;;;;4.18;nan;101569.03;5002667;28;20029;-77
2021/04/22 05:08:46;;;;;;;12.65;4.03;;;;;;;4.34;nan;101573.31;4986343;28;20049;-78
2021/04/22 05:11:12;;;;;;;12.60;4.35;;;;;;;4.33;nan;101574.31;4987008;28;20069;-78
2021/04/22 05:13:37;;;;;;;14.82;3.25;;;;;;;4.52;nan;101566.59;4978137;28;20038;-77
2021/04/22 05:16:03;;;;;;;15.05;3.58;;;;;;;4.68;nan;101580.63;4999372;28;20087;-77
2021/04/22 05:18:29;;;;;;;15.27;3.63;;;;;;;4.61;nan;101580.53;5000687;28;20453;-77
2021/04/22 05:20:55;;;;;;;18.33;4.30;;;;;;;4.70;nan;101566.16;4986685;28;20065;-76
2021/04/22 05:23:21;;;;;;;14.30;3.30;;;;;;;4.66;nan;101578.13;5000740;28;20480;-78
2021/04/22 05:25:48;;;;;;;14.60;2.97;;;;;;;4.58;nan;101569.47;4988135;28;20022;-77
2021/04/22 05:28:14;;;;;;;24.88;5.35;;;;;;;4.61;nan;101583.19;4981943;28;21042;-78
2021/04/22 05:30:44;;;;;;;13.70;3.40;;;;;;;4.72;nan;101580.06;4999877;28;20076;-77
2021/04/22 05:33:11;;;;;;;11.60;3.55;;;;;;;4.77;nan;101588.25;5002875;28;20033;-77
2021/04/22 05:35:36;;;;;;;19.20;3.83;;;;;;;4.85;nan;101598.78;4986911;28;20083;-78
2021/04/22 05:38:03;;;;;;;9.23;2.72;;;;;;;4.98;nan;101594.59;5001002;28;20025;-77
2021/04/22 05:40:29;;;;;;;14.35;3.00;;;;;;;5.04;nan;101584.03;5001859;28;20088;-77
2021/04/22 05:42:56;;;;;;;11.77;2.95;;;;;;;5.16;nan;101600.25;4984491;28;20484;-77
2021/04/22 05:45:21;;;;;;;20.38;4.03;;;;;;;5.14;nan;101592.47;4985522;28;20034;-77
2021/04/22 05:47:47;;;;;;;12.45;3.13;;;;;;;5.25;nan;101598.31;4994494;28;20032;-75
2021/04/22 05:50:14;;;;;;;14.48;3.13;;;;;;;5.39;nan;101590.25;4983797;28;20499;-75
2021/04/22 05:52:40;;;;;;;13.30;3.40;;;;;;;5.41;nan;101606.00;4997660;28;20136;-76
2021/04/22 05:55:07;;;;;;;15.32;3.70;;;;;;;5.47;nan;101600.72;4995285;28;20652;-74
2021/04/22 05:57:33;;;;;;;15.70;3.55;;;;;;;5.42;nan;101600.50;4998163;28;20049;-75
2021/04/22 05:59:59;;;;;;;17.65;3.45;;;;;;;5.77;nan;101597.88;4990938;28;20122;-76
2021/04/22 06:02:25;;;;;;;11.68;2.50;;;;;;;5.56;nan;101604.03;4994281;28;20026;-75
2021/04/22 06:04:51;;;;;;;15.23;4.50;;;;;;;5.67;nan;101595.53;4996329;28;20054;-77
2021/04/22 06:07:17;;;;;;;15.68;3.55;;;;;;;5.81;nan;101607.09;4981786;28;20034;-76
2021/04/22 06:09:42;;;;;;;18.17;4.18;;;;;;;5.98;nan;101596.97;4973045;28;20041;-75
2021/04/22 06:12:09;;;;;;;18.15;4.07;;;;;;;5.72;nan;101601.09;4998679;28;20512;-76
2021/04/22 06:14:34;;;;;;;13.43;2.92;;;;;;;5.57;nan;101600.41;4980947;28;20068;-76
2021/04/22 06:17:00;;;;;;;17.73;3.50;;;;;;;5.90;nan;101607.75;4993380;28;20049;-75
2021/04/22 06:19:26;;;;;;;13.48;3.05;;;;;;;6.01;nan;101613.38;4980653;28;20173;-76
2021/04/22 06:21:51;;;;;;;14.73;3.72;;;;;;;5.90;nan;101615.75;4981960;28;20461;-76
2021/04/22 06:24:17;;;;;;;11.40;3.15;;;;;;;5.99;nan;101611.94;4999465;28;20029;-75
2021/04/22 06:26:43;;;;;;;11.73;2.88;;;;;;;5.82;nan;101611.38;4979311;28;20050;-77
2021/04/22 06:29:10;;;;;;;14.48;3.40;;;;;;;5.81;nan;101616.91;4995102;28;20034;-77
2021/04/22 06:31:37;;;;;;;11.82;3.00;;;;;;;5.84;nan;101611.19;4996343;28;20096;-76
2021/04/22 06:34:03;;;;;;;15.50;3.53;;;;;;;5.79;nan;101626.91;4984342;28;20038;-76
2021/04/22 06:36:28;;;;;;;7.68;2.63;;;;;;;6.09;nan;101616.88;4983676;28;20491;-76
2021/04/22 06:38:54;;;;;;;11.85;3.45;;;;;;;5.97;nan;101625.41;4999028;28;20171;-79
2021/04/22 06:41:20;;;;;;;12.93;2.92;;;;;;;6.19;nan;101612.84;4983605;28;20041;-77
2021/04/22 06:43:45;;;;;;;8.88;3.42;;;;;;;6.24;nan;101623.69;5000673;28;20037;-76
2021/04/22 06:46:11;;;;;;;15.23;3.85;;;;;;;6.13;nan;101639.44;4982419;28;20734;-77
2021/04/22 06:48:37;;;;;;;13.07;3.33;;;;;;;6.32;nan;101623.56;5000044;28;20035;-76
2021/04/22 06:51:05;;;;;;;11.00;2.47;;;;;;;6.55;nan;101633.03;4998259;28;20065;-76
2021/04/22 06:53:31;;;;;;;14.05;3.53;;;;;;;6.24;nan;101644.16;4981157;28;20551;-77
2021/04/22 06:55:57;;;;;;;14.98;3.50;;;;;;;6.72;nan;101629.00;4997985;28;20088;-77
2021/04/22 06:58:23;;;;;;;17.33;4.18;;;;;;;6.56;nan;101651.47;4984462;28;20022;-78
2021/04/22 07:00:48;;;;;;;10.80;2.97;;;;;;;7.02;nan;101647.31;4997747;28;20770;-77
2021/04/22 07:03:14;;;;;;;6.68;2.80;;;;;;;6.59;nan;101650.25;4982739;28;21640;-76
2021/04/22 07:05:39;;;;;;;14.23;2.97;;;;;;;6.39;nan;101649.38;4982121;28;20061;-77
2021/04/22 07:08:06;;;;;;;9.35;2.63;;;;;;;6.58;nan;101651.28;4991737;28;20468;-76
2021/04/22 07:10:32;;;;;;;11.25;2.55;;;;;;;7.11;nan;101644.25;5003907;28;20025;-76
2021/04/22 07:12:58;;;;;;;10.75;2.80;;;;;;;6.83;nan;101655.06;4985239;28;20117;-76
2021/04/22 07:15:24;;;;;;;10.60;2.83;;;;;;;6.77;nan;101658.50;4987843;28;20117;-77
2021/04/22 07:17:50;;;;;;;11.30;2.50;;;;;;;7.03;nan;101651.63;5002659;28;20030;-78
2021/04/22 07:20:20;;;;;;;10.57;2.88;;;;;;;6.92;nan;101653.84;4981868;28;20034;-78
2021/04/22 07:22:47;;;;;;;15.55;2.90;;;;;;;7.42;nan;101656.16;4989173;28;20025;-78
2021/04/22 07:25:13;;;;;;;11.77;2.30;;;;;;;8.00;nan;101654.47;4987782;28;20451;-79
2021/04/22 07:27:40;;;;;;;7.55;2.28;;;;;;;7.77;nan;101659.44;5002854;28;20841;-78
2021/04/22 07:30:07;;;;;;;10.50;2.15;;;;;;;7.39;nan;101664.59;4988705;28;20025;-78
2021/04/22 07:32:33;;;;;;;11.90;3.70;;;;;;;7.17;nan;101669.25;4988029;28;20033;-78
2021/04/22 07:35:00;;;;;;;9.05;2.38;;;;;;;7.47;nan;101670.50;5000507;28;20084;-78
2021/04/22 07:37:25;;;;;;;10.32;2.45;;;;;;;7.49;nan;101648.97;5006346;28;20101;-77
2021/04/22 07:39:51;;;;;;;7.25;2.67;;;;;;;7.33;nan;101674.19;5004931;28;20098;-78
2021/04/22 07:42:17;;;;;;;10.98;2.70;;;;;;;7.68;nan;101676.66;4988132;28;20485;-75
2021/04/22 07:44:42;;;;;;;9.05;2.50;;;;;;;8.04;nan;101671.69;5005762;28;20061;-78
2021/04/22 07:47:08;;;;;;;5.80;2.05;;;;;;;8.51;nan;101668.91;4980533;28;20030;-78
2021/04/22 07:49:34;;;;;;;11.50;2.90;;;;;;;8.02;nan;101667.59;4986006;28;20022;-77
2021/04/22 07:52:00;;;;;;;11.05;2.33;;;;;;;7.88;nan;101678.28;5010003;28;20037;-78
2021/04/22 07:54:26;;;;;;;12.77;2.53;;;;;;;7.96;nan;101669.25;4996557;28;20025;-78
2021/04/22 07:56:52;;;;;;;10.88;2.53;;;;;;;8.23;nan;101674.53;4978555;28;20616;-78
2021/04/22 07:59:17;;;;;;;8.57;2.33;;;;;;;8.40;nan;101668.53;4989957;28;20022;-78
2021/04/22 08:01:43;;;;;;;8.27;2.17;;;;;;;8.30;nan;101678.00;4992125;28;20029;-77
2021/04/22 08:04:09;;;;;;;13.80;3.13;;;;;;;7.58;nan;101683.25;5005385;28;20026;-77
2021/04/22 08:06:34;;;;;;;11.68;2.45;;;;;;;7.69;nan;101695.13;4989229;28;20018;-77
2021/04/22 08:09:01;;;;;;;12.90;2.38;;;;;;;8.22;nan;101696.91;4985450;28;20065;-78
2021/04/22 08:11:27;;;;;;;12.70;3.08;;;;;;;8.06;nan;101684.81;4982979;28;20117;-77
2021/04/22 08:13:53;;;;;;;10.90;2.67;;;;;;;8.18;nan;101677.81;5001998;28;20030;-76
2021/04/22 08:16:19;;;;;;;13.30;2.80;;;;;;;8.38;nan;101683.94;5006241;28;20408;-77
2021/04/22 08:18:45;;;;;;;7.80;2.03;;;;;;;8.45;nan;101697.31;5002382;28;20536;-77
2021/04/22 08:21:11;;;;;;;13.60;2.40;;;;;;;8.66;nan;101685.50;5004760;28;20108;-77
2021/04/22 08:23:36;;;;;;;8.00;2.03;;;;;;;8.56;nan;101701.97;5005487;28;20109;-76
2021/04/22 08:26:08;;;;;;;12.77;3.13;;;;;;;8.49;nan;101690.50;4986772;28;20030;-77
2021/04/22 08:28:35;;;;;;;9.23;2.53;;;;;;;8.84;nan;101680.28;5003032;28;20038;-78
2021/04/22 08:31:06;;;;;;;11.48;2.75;;;;;;;8.68;nan;101692.28;5005201;28;20507;-79
2021/04/22 08:33:34;;;;;;;9.55;2.67;;;;;;;8.91;nan;101677.56;5002686;28;20601;-79
2021/04/22 08:36:00;;;;;;;13.65;3.60;;;;;;;8.68;nan;101686.94;4966514;28;20041;-78
2021/04/22 08:38:26;;;;;;;6.50;1.98;;;;;;;8.88;nan;101672.66;5002366;28;20145;-78
2021/04/22 08:40:53;;;;;;;10.38;2.58;;;;;;;8.30;nan;101681.50;5000039;28;20038;-80
2021/04/22 08:43:19;;;;;;;9.13;2.40;;;;;;;8.50;nan;101675.28;4983880;28;20026;-78
2021/04/22 08:45:46;;;;;;;9.13;2.05;;;;;;;8.25;nan;101683.13;5003751;28;20032;-79
2021/04/22 08:48:12;;;;;;;9.23;1.80;;;;;;;8.67;nan;101687.97;5000942;28;20099;-75
2021/04/22 08:50:41;;;;;;;8.02;2.08;;;;;;;8.88;nan;101675.31;4997835;28;20496;-78
2021/04/22 08:53:12;;;;;;;9.77;2.65;;;;;;;9.13;nan;101686.88;4981072;28;20088;-77
2021/04/22 08:55:38;;;;;;;7.25;2.38;;;;;;;8.89;nan;101669.75;5003060;28;20713;-78
2021/04/22 08:58:05;;;;;;;6.53;1.60;;;;;;;8.76;nan;101680.50;4994559;28;20030;-81
2021/04/22 09:00:39;;;;;;;10.90;2.53;;;;;;;8.93;nan;101691.53;4999412;28;20034;-79
2021/04/22 09:03:05;;;;;;;7.75;2.22;;;;;;;9.69;nan;101689.56;4999416;28;20061;-75
2021/04/22 09:05:31;;;;;;;10.32;1.75;;;;;;;10.02;nan;101690.28;4984190;28;20488;-78
2021/04/22 09:07:57;;;;;;;13.75;2.95;;;;;;;9.22;nan;101701.66;4998268;28;20045;-77
2021/04/22 09:10:25;;;;;;;9.45;1.92;;;;;;;9.47;nan;101690.16;4992407;28;21976;-75
2021/04/22 09:12:59;;;;;;;8.15;1.83;;;;;;;9.77;nan;101709.88;4980816;28;20467;-76
2021/04/22 09:15:25;;;;;;;11.55;2.40;;;;;;;9.70;nan;101714.47;4995690;28;20754;-78
2021/04/22 09:18:13;;;;;;;10.18;1.92;;;;;;;9.35;nan;101717.59;4993896;28;20145;-76
2021/04/22 09:20:43;;;;;;;8.90;2.53;;;;;;;9.34;nan;101715.97;4997695;28;20038;-77
2021/04/22 09:23:29;;;;;;;8.75;2.13;;;;;;;9.15;nan;101722.25;5002350;28;20033;-77
2021/04/22 09:26:00;;;;;;;6.07;1.73;;;;;;;9.11;nan;101709.53;5000371;28;20085;-78
2021/04/22 09:28:52;;;;;;;11.48;2.13;;;;;;;9.36;nan;101729.13;4986861;28;20038;-79
2021/04/22 09:31:26;;;;;;;9.30;1.23;;;;;;;10.00;nan;101731.47;4995780;28;20053;-78
2021/04/22 09:34:18;;;;;;;7.68;1.48;;;;;;;9.76;nan;101723.47;4988217;28;20033;-78
2021/04/22 09:36:50;;;;;;;10.55;2.38;;;;;;;9.41;nan;101715.91;4970965;28;20466;-78
2021/04/22 09:39:19;;;;;;;6.65;1.58;;;;;;;9.93;nan;101738.75;4996821;28;20033;-78
2021/04/22 09:41:47;;;;;;;11.60;2.25;;;;;;;10.19;nan;101728.84;4996675;28;20029;-78
2021/04/22 09:44:14;;;;;;;6.95;1.35;;;;;;;10.46;nan;101724.88;4985414;28;20068;-77
2021/04/22 09:46:46;;;;;;;8.13;1.58;;;;;;;11.17;nan;101726.03;5000352;28;20057;-77
2021/04/22 09:49:14;;;;;;;3.70;1.42;;;;;;;10.43;nan;101733.38;4998210;28;20037;-78
2021/04/22 09:51:41;;;;;;;4.35;1.75;;;;;;;9.82;nan;101738.66;5000209;28;20033;-78
2021/04/22 09:54:06;;;;;;;8.10;1.83;;;;;;;10.08;nan;101751.81;4999226;28;20030;-79
2021/04/22 09:56:58;;;;;;;5.43;1.60;;;;;;;9.97;nan;101742.63;5002198;28;20387;-77
2021/04/22 09:59:27;;;;;;;7.65;2.67;;;;;;;10.29;nan;101734.53;5000352;28;20045;-79
2021/04/22 10:02:05;;;;;;;6.25;1.70;;;;;;;10.80;nan;101736.03;4983267;28;20065;-78
2021/04/22 10:04:42;;;;;;;6.75;1.83;;;;;;;11.27;nan;101720.94;5000630;28;20503;-80
2021/04/22 10:07:26;;;;;;;5.45;1.35;;;;;;;10.50;nan;101728.75;4981010;28;20041;-80
2021/04/22 10:09:57;;;;;;;5.88;1.90;;;;;;;10.90;nan;101726.38;5000302;28;20028;-79
2021/04/22 10:12:32;;;;;;;5.60;1.60;;;;;;;10.79;nan;101732.53;4992886;28;20177;-77
2021/04/22 10:15:08;;;;;;;7.15;1.90;;;;;;;10.14;nan;101742.06;4999764;28;20030;-78
2021/04/22 10:17:34;;;;;;;3.13;1.27;;;;;;;10.36;nan;101735.28;4995354;28;20061;-77
2021/04/22 10:20:08;;;;;;;5.75;1.70;;;;;;;9.85;nan;101738.22;4997477;28;20030;-78
2021/04/22 10:22:46;;;;;;;5.13;1.55;;;;;;;10.52;nan;101728.50;4991395;28;20459;-77
2021/04/22 10:25:18;;;;;;;3.78;1.27;;;;;;;11.39;nan;101735.22;4981658;28;20042;-77
2021/04/22 10:27:44;;;;;;;3.95;1.30;;;;;;;10.68;nan;101729.78;5001233;28;20653;-77
2021/04/22 10:30:16;;;;;;;4.40;1.45;;;;;;;10.26;nan;101756.41;4980671;28;20532;-77
2021/04/22 10:32:43;;;;;;;5.13;1.15;;;;;;;9.26;nan;101742.97;4986342;28;20036;-77
2021/04/22 10:35:11;;;;;;;8.20;1.50;;;;;;;9.70;nan;101754.63;4982103;28;20034;-78
2021/04/22 10:37:43;;;;;;;5.72;1.27;;;;;;;10.26;nan;101754.56;4997846;28;20076;-77
2021/04/22 10:40:10;;;;;;;6.13;1.77;;;;;;;9.80;nan;101749.56;5000519;28;20038;-78
2021/04/22 10:42:37;;;;;;;4.55;1.30;;;;;;;9.87;nan;101746.84;4989336;28;20041;-77
2021/04/22 10:45:05;;;;;;;5.47;1.13;;;;;;;9.57;nan;101771.56;5011222;28;20029;-77
2021/04/22 10:47:31;;;;;;;8.23;1.30;;;;;;;9.63;nan;101777.91;5006163;28;20042;-77
2021/04/22 10:49:57;;;;;;;4.95;1.63;;;;;;;9.60;nan;101778.34;5005848;28;20033;-77
2021/04/22 10:52:23;;;;;;;4.20;1.30;;;;;;;9.67;nan;101776.44;4985857;28;21094;-77
2021/04/22 10:54:52;;;;;;;4.97;1.40;;;;;;;9.39;nan;101771.50;4987741;28;20065;-77
2021/04/22 10:57:23;;;;;;;5.97;1.40;;;;;;;9.62;nan;101769.06;5003448;28;20792;-77
2021/04/22 11:00:05;;;;;;;5.43;1.50;;;;;;;10.19;nan;101769.81;4981066;28;20038;-77
2021/04/22 11:02:41;;;;;;;4.95;1.50;;;;;;;10.24;nan;101766.53;4977662;28;20660;-77
2021/04/22 11:05:19;;;;;;;4.85;1.67;;;;;;;10.99;nan;101761.78;5002000;28;20022;-77
2021/04/22 11:07:54;;;;;;;5.85;1.30;;;;;;;10.83;nan;101763.19;4995341;28;20026;-78
2021/04/22 11:10:19;;;;;;;3.90;1.58;;;;;;;10.04;nan;101753.28;4981034;28;20083;-77
2021/04/22 11:12:45;;;;;;;4.47;1.35;;;;;;;9.81;nan;101743.19;4980615;28;20034;-80
2021/04/22 11:15:18;;;;;;;5.32;1.35;;;;;;;10.12;nan;101749.50;4984405;28;20507;-78
2021/04/22 11:17:43;;;;;;;3.20;1.17;;;;;;;10.93;nan;101757.28;4997398;28;20021;-77
2021/04/22 11:20:19;;;;;;;4.75;1.15;;;;;;;11.78;nan;101749.91;4983353;28;20417;-78
2021/04/22 11:22:46;;;;;;;2.50;1.27;;;;;;;12.03;nan;101751.59;5002278;28;20675;-79
2021/04/22 11:25:21;;;;;;;5.38;1.17;;;;;;;11.38;nan;101744.31;4985012;28;20838;-78
2021/04/22 11:27:53;;;;;;;4.43;1.42;;;;;;;10.40;nan;101757.09;4989228;28;20562;-79
2021/04/22 11:30:26;;;;;;;6.40;1.75;;;;;;;10.05;nan;101775.50;5000492;28;20096;-78
2021/04/22 11:32:54;;;;;;;3.88;1.30;;;;;;;9.91;nan;101775.66;5002473;28;20049;-79
2021/04/22 11:35:22;;;;;;;3.85;0.93;;;;;;;10.27;nan;101758.88;4986259;28;20113;-78
2021/04/22 11:37:51;;;;;;;4.82;1.40;;;;;;;9.83;nan;101778.56;5002086;28;20030;-78
2021/04/22 11:40:27;;;;;;;6.32;0.93;;;;;;;8.93;nan;101777.88;4981875;28;20030;-79
2021/04/22 11:42:56;;;;;;;5.15;1.13;;;;;;;9.24;nan;101774.44;5003763;28;20488;-80
2021/04/22 11:45:25;;;;;;;5.05;1.00;;;;;;;9.32;nan;101778.72;4998642;28;20038;-79